Time;durP1;ratioP1;P1;durP2;ratioP2;P2;SDS_P1;SDS_P2;PMS_P1;PMS_P2;Temp;Humidity;BMP_temperature;BMP_pressure;BME280_temperature;BME280_humidity;BME280_pressure;Samples;Min_cycle;Max_cycle;Signal;HPM_P1;HPM_P2
2023/05/18 00:00:19;;;;;;;9.30;3.47;;;9.00;99.90;;;;;;5119655;27;20046;-73
2023/05/18 00:02:49;;;;;;;7.35;3.22;;;9.00;99.90;;;;;;5131986;27;20664;-73
2023/05/18 00:05:17;;;;;;;6.38;3.08;;;8.90;99.90;;;;;;5136873;27;20043;-73
2023/05/18 00:07:43;;;;;;;4.63;2.53;;;8.90;99.90;;;;;;5138941;27;20489;-73
2023/05/18 00:10:10;;;;;;;6.63;3.00;;;8.90;99.90;;;;;;5112435;27;20038;-74
2023/05/18 00:12:36;;;;;;;8.75;3.05;;;8.90;99.90;;;;;;5125747;27;20142;-74
2023/05/18 00:15:02;;;;;;;6.88;2.75;;;8.90;99.90;;;;;;5143739;27;20041;-74
2023/05/18 00:17:28;;;;;;;6.60;3.28;;;8.90;99.90;;;;;;5129821;27;20046;-74
2023/05/18 00:19:57;;;;;;;6.00;2.65;;;8.90;99.90;;;;;;5138322;27;20517;-74
2023/05/18 00:22:25;;;;;;;8.20;2.75;;;8.90;99.90;;;;;;5131302;27;20063;-73
2023/05/18 00:24:51;;;;;;;3.88;2.88;;;8.90;99.90;;;;;;5129230;27;20047;-74
2023/05/18 00:27:16;;;;;;;7.45;4.22;;;8.90;99.90;;;;;;5129055;27;20094;-75
2023/05/18 00:29:42;;;;;;;7.20;3.90;;;8.90;99.90;;;;;;5127420;27;20047;-76
2023/05/18 00:32:08;;;;;;;5.53;3.85;;;8.80;99.90;;;;;;5135350;27;20057;-74
2023/05/18 00:34:34;;;;;;;7.63;3.65;;;8.80;99.90;;;;;;5109535;27;20043;-73
2023/05/18 00:37:00;;;;;;;4.13;2.78;;;8.90;99.90;;;;;;5124143;27;20054;-72
2023/05/18 00:39:26;;;;;;;4.90;3.50;;;8.90;99.90;;;;;;5141055;27;20050;-74
2023/05/18 00:41:52;;;;;;;5.15;2.83;;;9.00;99.90;;;;;;5101888;27;20043;-73
2023/05/18 00:44:17;;;;;;;4.43;2.95;;;9.00;99.90;;;;;;5146955;27;20049;-74
2023/05/18 00:46:43;;;;;;;5.07;2.97;;;9.00;99.90;;;;;;5125834;27;20050;-73
2023/05/18 00:49:10;;;;;;;4.22;2.85;;;9.00;99.90;;;;;;5124854;27;20104;-74
2023/05/18 00:51:37;;;;;;;6.53;3.25;;;8.90;99.90;;;;;;5130732;27;20038;-74
2023/05/18 00:54:04;;;;;;;7.28;3.40;;;9.00;99.90;;;;;;5145505;27;20292;-75
2023/05/18 00:56:32;;;;;;;5.53;2.53;;;8.90;99.90;;;;;;5139516;27;20387;-74
2023/05/18 00:59:00;;;;;;;3.45;2.60;;;8.80;99.90;;;;;;5108032;27;20906;-73
2023/05/18 01:01:29;;;;;;;5.13;2.92;;;8.90;99.90;;;;;;5128333;27;20298;-73
2023/05/18 01:04:00;;;;;;;5.93;3.53;;;8.90;99.90;;;;;;5110694;27;20094;-73
2023/05/18 01:06:26;;;;;;;8.85;3.28;;;9.00;99.90;;;;;;5131142;27;20051;-76
2023/05/18 01:08:53;;;;;;;7.38;3.20;;;9.00;99.90;;;;;;5110897;27;20051;-73
2023/05/18 01:11:43;;;;;;;8.10;2.88;;;8.90;99.90;;;;;;5142728;27;20046;-73
2023/05/18 01:14:25;;;;;;;4.57;3.10;;;8.90;99.90;;;;;;5113910;27;20057;-74
2023/05/18 01:16:58;;;;;;;4.25;2.80;;;8.80;99.90;;;;;;5117975;27;20854;-72
2023/05/18 01:19:59;;;;;;;4.13;2.65;;;8.80;99.90;;;;;;5133445;27;20051;-73
2023/05/18 01:22:30;;;;;;;6.00;3.15;;;8.80;99.90;;;;;;5113960;27;20094;-73
2023/05/18 01:25:03;;;;;;;6.72;3.17;;;8.90;99.90;;;;;;5114872;27;20062;-73
2023/05/18 01:27:36;;;;;;;7.55;3.88;;;9.00;99.90;;;;;;5139166;27;20042;-73
2023/05/18 01:30:06;;;;;;;5.45;3.53;;;9.00;99.90;;;;;;5137605;27;20047;-75
2023/05/18 01:32:40;;;;;;;5.88;3.25;;;9.00;99.90;;;;;;5129602;27;20816;-74
2023/05/18 01:35:05;;;;;;;4.03;3.22;;;8.90;99.90;;;;;;5138779;27;20062;-73
2023/05/18 01:37:31;;;;;;;4.82;3.17;;;8.80;99.90;;;;;;5130289;27;20046;-74
2023/05/18 01:39:57;;;;;;;5.07;3.25;;;8.90;99.90;;;;;;5134477;27;20126;-74
2023/05/18 01:42:27;;;;;;;5.88;3.25;;;8.90;99.90;;;;;;5139788;27;20134;-75
2023/05/18 01:44:57;;;;;;;6.20;3.13;;;9.00;99.90;;;;;;5111798;27;20050;-75
2023/05/18 01:47:27;;;;;;;4.47;2.85;;;9.00;99.90;;;;;;5109451;27;20058;-74
2023/05/18 01:50:02;;;;;;;6.93;3.28;;;9.00;99.90;;;;;;5131645;27;20055;-75
2023/05/18 01:52:36;;;;;;;5.45;2.72;;;9.10;99.90;;;;;;5101172;27;20063;-73
2023/05/18 01:55:03;;;;;;;9.52;3.88;;;9.00;99.90;;;;;;5143933;27;20123;-75
2023/05/18 01:57:31;;;;;;;5.63;3.28;;;9.00;99.90;;;;;;5110704;27;20050;-73
2023/05/18 02:00:00;;;;;;;4.85;3.35;;;8.90;99.90;;;;;;5116523;27;20042;-76
2023/05/18 02:02:27;;;;;;;6.30;2.95;;;9.00;99.90;;;;;;5107212;27;20116;-75
2023/05/18 02:04:53;;;;;;;6.20;3.13;;;9.00;99.90;;;;;;5134868;27;20120;-75
2023/05/18 02:07:18;;;;;;;9.07;3.58;;;9.10;99.90;;;;;;5139456;27;20436;-74
2023/05/18 02:09:44;;;;;;;7.43;4.18;;;9.10;99.90;;;;;;5128558;27;20046;-75
2023/05/18 02:12:10;;;;;;;9.57;3.20;;;9.10;99.90;;;;;;5142098;27;20074;-74
2023/05/18 02:14:36;;;;;;;5.00;3.50;;;9.00;99.90;;;;;;5105265;27;20070;-75
2023/05/18 02:17:02;;;;;;;6.20;3.13;;;8.90;99.90;;;;;;5114561;27;20043;-69
2023/05/18 02:19:29;;;;;;;6.72;3.45;;;7.80;99.90;;;;;;5155823;27;20047;-68
2023/05/18 02:21:56;;;;;;;7.95;3.17;;;8.80;99.90;;;;;;5137567;27;20050;-69
2023/05/18 02:24:23;;;;;;;5.97;3.00;;;8.90;99.90;;;;;;5156222;27;20050;-68
2023/05/18 02:26:50;;;;;;;6.50;3.25;;;9.00;99.90;;;;;;5155553;27;20072;-67
2023/05/18 02:29:16;;;;;;;7.30;3.60;;;9.00;99.90;;;;;;5155158;27;20049;-68
2023/05/18 02:31:42;;;;;;;5.85;4.22;;;9.00;99.90;;;;;;5155191;27;20113;-68
2023/05/18 02:34:09;;;;;;;5.43;4.28;;;9.00;99.90;;;;;;5155114;27;20042;-68
2023/05/18 02:36:38;;;;;;;6.85;3.53;;;8.90;99.90;;;;;;5155096;27;20087;-68
2023/05/18 02:39:08;;;;;;;5.38;3.30;;;8.80;99.90;;;;;;5155127;27;20042;-67
2023/05/18 02:41:35;;;;;;;3.38;3.08;;;8.70;99.90;;;;;;5154890;27;20049;-67
2023/05/18 02:44:02;;;;;;;4.55;3.30;;;8.70;99.90;;;;;;5155077;27;20648;-67
2023/05/18 02:46:28;;;;;;;7.63;2.85;;;8.70;99.90;;;;;;5136902;27;20118;-67
2023/05/18 02:48:54;;;;;;;3.92;2.90;;;8.80;99.90;;;;;;5136544;27;20039;-67
2023/05/18 02:51:20;;;;;;;6.20;3.13;;;8.90;99.90;;;;;;5154889;27;20061;-67
2023/05/18 02:53:46;;;;;;;5.15;2.67;;;8.90;99.90;;;;;;5154676;27;20046;-67
2023/05/18 02:56:12;;;;;;;7.05;2.97;;;9.00;99.90;;;;;;5136629;27;20422;-67
2023/05/18 02:58:38;;;;;;;7.70;3.20;;;9.00;99.90;;;;;;5154668;27;20410;-67
2023/05/18 03:01:08;;;;;;;6.60;2.92;;;8.90;99.90;;;;;;5136869;27;20064;-67
2023/05/18 03:03:33;;;;;;;6.13;3.65;;;8.80;99.90;;;;;;5154697;27;20043;-67
2023/05/18 03:06:04;;;;;;;7.10;3.30;;;8.70;99.90;;;;;;5154418;27;20087;-67
2023/05/18 03:08:30;;;;;;;5.88;2.95;;;8.60;99.90;;;;;;5136302;27;20043;-67
2023/05/18 03:10:59;;;;;;;5.75;3.17;;;8.60;99.90;;;;;;5136341;27;20057;-67
2023/05/18 03:13:25;;;;;;;6.47;3.83;;;9.50;99.90;;;;;;5154848;27;20090;-67
2023/05/18 03:15:51;;;;;;;6.80;3.15;;;8.50;99.90;;;;;;5154813;27;20058;-67
2023/05/18 03:18:18;;;;;;;5.47;3.58;;;8.50;99.90;;;;;;5154445;27;20046;-67
2023/05/18 03:20:44;;;;;;;6.50;3.63;;;8.40;99.90;;;;;;5154902;27;20073;-67
2023/05/18 03:23:09;;;;;;;9.38;4.38;;;8.40;99.90;;;;;;5153743;27;20046;-67
2023/05/18 03:25:36;;;;;;;7.38;4.13;;;8.40;99.90;;;;;;5154263;27;20053;-67
2023/05/18 03:28:04;;;;;;;10.38;4.20;;;8.30;99.90;;;;;;5153657;27;20115;-67
2023/05/18 03:30:33;;;;;;;5.32;3.15;;;8.40;99.90;;;;;;5154367;27;20065;-67
2023/05/18 03:33:03;;;;;;;5.32;3.22;;;8.40;99.90;;;;;;5154070;27;20043;-67
2023/05/18 03:35:29;;;;;;;3.58;2.72;;;8.50;99.90;;;;;;5154310;27;20442;-67
2023/05/18 03:37:55;;;;;;;6.07;3.55;;;8.70;99.90;;;;;;5154213;27;20043;-67
2023/05/18 03:40:21;;;;;;;10.32;3.92;;;8.70;99.90;;;;;;5153877;27;20043;-67
2023/05/18 03:42:47;;;;;;;8.52;3.50;;;8.70;99.90;;;;;;5135576;27;20038;-67
2023/05/18 03:45:13;;;;;;;6.63;3.17;;;8.60;99.90;;;;;;5118892;27;20118;-67
2023/05/18 03:47:39;;;;;;;9.73;3.80;;;8.60;99.90;;;;;;5154239;27;20043;-67
2023/05/18 03:50:06;;;;;;;6.68;3.45;;;8.50;99.90;;;;;;5154126;27;20099;-67
2023/05/18 03:52:35;;;;;;;6.20;3.13;;;8.60;99.90;;;;;;5135740;27;20043;-67
2023/05/18 03:55:03;;;;;;;5.60;2.95;;;8.60;99.90;;;;;;5153784;27;20435;-67
2023/05/18 03:57:28;;;;;;;7.75;3.70;;;8.70;99.90;;;;;;5154357;27;20125;-67
2023/05/18 03:59:55;;;;;;;5.93;3.08;;;8.70;99.90;;;;;;5135543;27;20086;-67
2023/05/18 04:02:21;;;;;;;10.85;3.80;;;8.60;99.90;;;;;;5153625;27;20119;-67
2023/05/18 04:04:47;;;;;;;7.00;3.95;;;8.50;99.90;;;;;;5154078;27;20045;-67
2023/05/18 04:07:17;;;;;;;5.30;3.22;;;8.50;99.90;;;;;;5135319;27;20053;-68
2023/05/18 04:09:43;;;;;;;7.68;3.97;;;8.40;99.90;;;;;;5153686;27;20073;-67
2023/05/18 04:12:09;;;;;;;6.35;3.80;;;8.30;99.90;;;;;;5153908;27;20443;-67
2023/05/18 04:14:35;;;;;;;6.07;3.92;;;8.30;99.90;;;;;;5154244;27;20072;-67
2023/05/18 04:17:05;;;;;;;5.53;3.55;;;8.30;99.90;;;;;;5135964;27;20440;-67
2023/05/18 04:19:32;;;;;;;4.32;3.40;;;8.30;99.90;;;;;;5135888;27;20393;-67
2023/05/18 04:21:58;;;;;;;7.43;3.10;;;8.30;99.90;;;;;;5135154;27;20387;-67
2023/05/18 04:24:25;;;;;;;4.22;2.97;;;8.30;99.90;;;;;;5153760;27;20051;-67
2023/05/18 04:26:52;;;;;;;7.60;3.83;;;8.30;99.90;;;;;;5154145;27;20069;-67
2023/05/18 04:29:18;;;;;;;7.95;3.78;;;8.30;99.90;;;;;;5153835;27;20129;-67
2023/05/18 04:31:46;;;;;;;5.43;3.10;;;8.30;99.90;;;;;;5153510;27;20155;-67
2023/05/18 04:34:12;;;;;;;6.03;3.55;;;8.40;99.90;;;;;;5153951;27;20047;-68
2023/05/18 04:36:41;;;;;;;5.20;2.80;;;8.40;99.90;;;;;;5153683;27;20035;-67
2023/05/18 04:39:08;;;;;;;9.35;3.35;;;8.40;99.90;;;;;;5153402;27;20053;-67
2023/05/18 04:41:34;;;;;;;3.22;2.58;;;8.40;99.90;;;;;;5156944;27;20068;-67
2023/05/18 04:44:00;;;;;;;7.38;3.50;;;8.40;99.90;;;;;;5157143;27;20050;-66
2023/05/18 04:46:27;;;;;;;7.65;3.50;;;8.30;99.90;;;;;;5138928;27;20086;-67
2023/05/18 04:48:56;;;;;;;5.95;3.30;;;8.40;99.90;;;;;;5157294;27;20399;-67
2023/05/18 04:51:23;;;;;;;7.20;3.08;;;8.40;99.90;;;;;;5139256;27;20042;-67
2023/05/18 04:53:49;;;;;;;4.32;2.38;;;8.50;99.90;;;;;;5157299;27;20043;-67
2023/05/18 04:56:16;;;;;;;10.00;4.15;;;8.50;99.90;;;;;;5157338;27;20043;-67
2023/05/18 04:58:44;;;;;;;4.45;2.67;;;8.60;99.90;;;;;;5156713;27;20051;-67
2023/05/18 05:01:14;;;;;;;9.65;3.78;;;8.60;99.90;;;;;;5157280;27;20062;-68
2023/05/18 05:03:40;;;;;;;7.28;2.75;;;8.60;99.90;;;;;;5156615;27;20137;-68
2023/05/18 05:06:06;;;;;;;3.65;2.70;;;8.60;99.90;;;;;;5157261;27;20082;-68
2023/05/18 05:08:32;;;;;;;4.75;3.35;;;8.70;99.90;;;;;;5156562;27;20039;-68
2023/05/18 05:10:57;;;;;;;9.07;2.90;;;8.70;99.90;;;;;;5156525;27;20069;-68
2023/05/18 05:13:23;;;;;;;8.43;2.92;;;8.60;99.90;;;;;;5138270;27;20479;-68
2023/05/18 05:15:49;;;;;;;5.13;3.25;;;8.70;99.90;;;;;;5156757;27;20038;-68
2023/05/18 05:18:15;;;;;;;6.80;3.40;;;8.70;99.90;;;;;;5156343;27;20049;-68
2023/05/18 05:20:40;;;;;;;5.25;3.22;;;8.70;99.90;;;;;;5156740;27;20121;-68
2023/05/18 05:23:06;;;;;;;6.00;3.08;;;8.80;99.90;;;;;;5139233;27;20046;-68
2023/05/18 05:25:32;;;;;;;7.13;3.63;;;8.70;99.90;;;;;;5158671;27;20126;-68
2023/05/18 05:27:58;;;;;;;7.13;3.65;;;8.80;99.90;;;;;;5157959;27;20038;-68
2023/05/18 05:30:23;;;;;;;4.82;2.50;;;8.80;99.90;;;;;;5157686;27;20479;-68
2023/05/18 05:32:49;;;;;;;6.28;2.90;;;8.90;99.90;;;;;;5156836;27;20126;-68
2023/05/18 05:35:15;;;;;;;4.80;3.03;;;8.90;99.90;;;;;;5156592;27;20047;-68
2023/05/18 05:37:40;;;;;;;8.45;3.35;;;8.90;99.90;;;;;;5156058;27;20043;-68
2023/05/18 05:40:08;;;;;;;9.00;3.40;;;8.90;99.90;;;;;;5156435;27;20041;-67
2023/05/18 05:42:34;;;;;;;6.43;2.60;;;8.90;99.90;;;;;;5156075;27;20045;-67
2023/05/18 05:45:00;;;;;;;5.85;3.47;;;9.00;99.90;;;;;;5156185;27;20042;-67
2023/05/18 05:47:26;;;;;;;7.63;3.58;;;9.00;99.90;;;;;;5156340;27;20047;-68
2023/05/18 05:49:51;;;;;;;3.83;3.22;;;9.10;99.90;;;;;;5156213;27;20095;-68
2023/05/18 05:52:17;;;;;;;6.55;3.05;;;9.30;99.90;;;;;;5156103;27;20047;-68
2023/05/18 05:54:43;;;;;;;5.57;2.88;;;9.30;99.90;;;;;;5156315;27;20039;-68
2023/05/18 05:57:09;;;;;;;7.28;3.20;;;9.40;99.90;;;;;;5155944;27;20592;-68
2023/05/18 05:59:34;;;;;;;7.95;2.97;;;9.50;99.90;;;;;;5155870;27;20043;-68
2023/05/18 06:02:01;;;;;;;3.65;3.00;;;9.60;99.90;;;;;;5156168;27;20039;-68
2023/05/18 06:04:26;;;;;;;6.20;3.25;;;9.70;99.90;;;;;;5137219;27;20047;-68
2023/05/18 06:06:52;;;;;;;5.80;3.55;;;9.80;99.90;;;;;;5155867;27;20049;-68
2023/05/18 06:09:18;;;;;;;5.07;2.97;;;9.80;99.90;;;;;;5155550;27;20042;-68
2023/05/18 06:11:44;;;;;;;6.18;3.47;;;9.90;99.90;;;;;;5155443;27;20043;-68
2023/05/18 06:14:11;;;;;;;11.10;3.25;;;10.00;99.90;;;;;;5155470;27;20126;-68
2023/05/18 06:16:37;;;;;;;5.90;3.10;;;10.00;99.90;;;;;;5155445;27;20104;-68
2023/05/18 06:19:03;;;;;;;7.53;3.00;;;10.10;99.90;;;;;;5155454;27;20467;-68
2023/05/18 06:21:28;;;;;;;6.80;4.05;;;10.20;99.90;;;;;;5155444;27;20085;-68
2023/05/18 06:23:55;;;;;;;6.03;3.17;;;10.30;99.90;;;;;;5155688;27;20061;-68
2023/05/18 06:26:21;;;;;;;4.40;3.08;;;10.30;99.90;;;;;;5155092;27;20051;-68
2023/05/18 06:28:47;;;;;;;5.97;3.13;;;10.50;99.90;;;;;;5154893;27;20111;-68
2023/05/18 06:31:14;;;;;;;6.93;3.00;;;10.60;99.90;;;;;;5155353;27;20427;-69
2023/05/18 06:33:39;;;;;;;6.70;2.90;;;10.80;99.90;;;;;;5154682;27;20043;-69
2023/05/18 06:36:05;;;;;;;5.07;3.05;;;10.90;99.90;;;;;;5155315;27;20126;-68
2023/05/18 06:38:31;;;;;;;6.03;2.58;;;11.10;99.90;;;;;;5154868;27;20058;-68
2023/05/18 06:40:57;;;;;;;7.55;2.75;;;11.20;99.70;;;;;;5155224;27;20419;-68
2023/05/18 06:43:25;;;;;;;4.75;2.72;;;11.40;99.40;;;;;;5154604;27;20054;-68
2023/05/18 06:45:51;;;;;;;10.65;3.58;;;11.50;99.00;;;;;;5155234;27;20051;-69
2023/05/18 06:48:17;;;;;;;5.32;2.72;;;11.60;98.70;;;;;;5154366;27;20567;-68
2023/05/18 06:50:42;;;;;;;8.38;3.40;;;11.90;98.60;;;;;;5154630;27;20038;-69
2023/05/18 06:53:08;;;;;;;4.65;2.90;;;11.80;97.90;;;;;;5154824;27;20118;-69
2023/05/18 06:55:34;;;;;;;5.60;2.90;;;11.90;97.50;;;;;;5154971;27;20487;-68
2023/05/18 06:58:01;;;;;;;8.20;2.97;;;12.00;97.80;;;;;;5154465;27;20095;-69
2023/05/18 07:00:27;;;;;;;4.35;2.72;;;12.10;98.00;;;;;;5118952;27;20042;-69
2023/05/18 07:02:52;;;;;;;6.30;3.30;;;12.20;98.10;;;;;;5153484;27;20041;-66
2023/05/18 07:05:18;;;;;;;5.25;2.67;;;12.20;97.50;;;;;;5136223;27;20050;-69
2023/05/18 07:07:44;;;;;;;8.10;3.15;;;12.30;96.80;;;;;;5136179;27;20094;-69
2023/05/18 07:10:10;;;;;;;5.93;3.05;;;12.70;97.40;;;;;;5136012;27;20039;-69
2023/05/18 07:12:35;;;;;;;3.80;2.67;;;12.90;96.70;;;;;;5154244;27;20050;-66
2023/05/18 07:15:02;;;;;;;4.45;2.90;;;13.20;96.50;;;;;;5154157;27;20046;-66
2023/05/18 07:17:28;;;;;;;3.67;3.03;;;13.90;96.70;;;;;;5136094;27;20494;-69
2023/05/18 07:19:54;;;;;;;4.63;2.40;;;14.30;96.10;;;;;;5153963;27;20078;-69
2023/05/18 07:22:21;;;;;;;4.00;2.35;;;14.60;94.80;;;;;;5153784;27;20107;-68
2023/05/18 07:24:46;;;;;;;3.85;2.20;;;14.30;94.20;;;;;;5135425;27;20051;-69
2023/05/18 07:27:12;;;;;;;6.70;2.60;;;14.10;94.40;;;;;;5135827;27;20047;-68
2023/05/18 07:29:38;;;;;;;3.00;2.33;;;13.70;94.20;;;;;;5154143;27;20055;-69
2023/05/18 07:32:04;;;;;;;4.13;2.33;;;13.60;94.20;;;;;;5154430;27;20038;-69
2023/05/18 07:34:30;;;;;;;5.65;2.67;;;13.40;94.20;;;;;;5154118;27;20564;-68
2023/05/18 07:36:56;;;;;;;7.22;2.15;;;13.10;93.80;;;;;;5154240;27;20038;-67
2023/05/18 07:39:27;;;;;;;4.20;2.40;;;12.80;93.20;;;;;;5154481;27;20057;-67
2023/05/18 07:41:54;;;;;;;5.53;2.92;;;12.60;94.30;;;;;;5135782;27;20467;-67
2023/05/18 07:44:20;;;;;;;7.47;2.50;;;12.50;95.00;;;;;;5154010;27;20042;-67
2023/05/18 07:46:46;;;;;;;6.15;2.22;;;12.30;95.00;;;;;;5136428;27;20065;-67
2023/05/18 07:49:11;;;;;;;5.65;2.55;;;12.40;95.30;;;;;;5154572;27;20050;-68
2023/05/18 07:51:37;;;;;;;6.15;2.25;;;12.70;95.20;;;;;;5135775;27;20042;-69
2023/05/18 07:54:04;;;;;;;4.80;2.40;;;13.10;94.80;;;;;;5154353;27;20039;-69
2023/05/18 07:56:30;;;;;;;2.97;2.28;;;13.40;94.20;;;;;;5135625;27;20043;-67
2023/05/18 07:58:56;;;;;;;5.10;2.13;;;13.70;94.40;;;;;;5153760;27;20078;-69
2023/05/18 08:01:26;;;;;;;2.90;2.15;;;13.70;94.10;;;;;;5154096;27;20426;-68
2023/05/18 08:03:52;;;;;;;3.90;2.03;;;13.50;93.20;;;;;;5154182;27;20062;-67
2023/05/18 08:06:17;;;;;;;6.85;2.25;;;13.30;93.30;;;;;;5154318;27;20066;-68
2023/05/18 08:08:43;;;;;;;5.03;2.28;;;13.10;93.40;;;;;;5154453;27;20449;-67
2023/05/18 08:11:08;;;;;;;4.45;2.50;;;13.50;93.80;;;;;;5154088;27;20433;-67
2023/05/18 08:13:34;;;;;;;6.30;2.90;;;14.00;93.60;;;;;;5154481;27;20042;-67
2023/05/18 08:16:00;;;;;;;3.83;2.13;;;14.60;93.40;;;;;;5157644;27;20039;-67
2023/05/18 08:18:26;;;;;;;6.88;2.35;;;14.80;93.00;;;;;;5158079;27;20054;-68
2023/05/18 08:20:52;;;;;;;4.68;2.60;;;14.80;92.60;;;;;;5157813;27;20088;-67
2023/05/18 08:23:19;;;;;;;3.45;2.47;;;14.90;92.90;;;;;;5158181;27;20051;-66
2023/05/18 08:25:44;;;;;;;3.92;2.20;;;15.00;92.20;;;;;;5157757;27;20050;-67
2023/05/18 08:28:10;;;;;;;7.03;2.63;;;15.40;92.80;;;;;;5122362;27;20046;-67
2023/05/18 08:30:36;;;;;;;3.67;2.00;;;15.80;92.70;;;;;;5157500;27;20061;-68
2023/05/18 08:33:01;;;;;;;5.45;2.20;;;16.20;92.60;;;;;;5158392;27;20170;-67
2023/05/18 08:35:28;;;;;;;4.68;2.33;;;16.80;92.30;;;;;;5157558;27;20082;-66
2023/05/18 08:37:53;;;;;;;4.30;2.67;;;16.70;91.30;;;;;;5157990;27;20044;-67
2023/05/18 08:40:19;;;;;;;7.35;2.17;;;17.10;91.70;;;;;;5157263;27;20119;-68
2023/05/18 08:43:09;;;;;;;4.53;2.10;;;17.30;90.90;;;;;;5138968;27;20434;-68
2023/05/18 08:45:47;;;;;;;8.43;2.90;;;17.60;89.90;;;;;;5157104;27;20046;-67
2023/05/18 08:48:15;;;;;;;4.72;2.33;;;18.00;89.70;;;;;;5157279;27;20082;-66
2023/05/18 08:50:41;;;;;;;5.47;2.13;;;18.10;89.00;;;;;;5157229;27;20050;-67
2023/05/18 08:53:09;;;;;;;6.45;2.30;;;17.80;89.80;;;;;;5157636;27;20487;-67
2023/05/18 08:55:36;;;;;;;5.72;2.45;;;17.80;88.80;;;;;;5157211;27;20065;-68
2023/05/18 08:58:03;;;;;;;4.20;1.88;;;17.80;89.10;;;;;;5157108;27;20049;-68
2023/05/18 09:00:31;;;;;;;2.78;1.60;;;18.00;86.10;;;;;;5157428;27;20042;-68
2023/05/18 09:02:57;;;;;;;5.53;2.40;;;18.00;88.50;;;;;;5156885;27;20039;-68
2023/05/18 09:05:23;;;;;;;9.02;2.80;;;17.10;86.60;;;;;;5157473;27;20054;-68
2023/05/18 09:07:50;;;;;;;4.80;2.10;;;17.00;88.00;;;;;;5156936;27;20506;-68
2023/05/18 09:10:16;;;;;;;7.25;2.08;;;16.80;89.00;;;;;;5138968;27;20154;-68
2023/05/18 09:12:45;;;;;;;5.05;1.83;;;16.90;89.60;;;;;;5156822;27;20114;-68
2023/05/18 09:15:13;;;;;;;4.15;2.65;;;16.90;88.00;;;;;;5157320;27;20115;-68
2023/05/18 09:17:39;;;;;;;4.35;1.60;;;16.80;90.00;;;;;;5156726;27;20058;-68
2023/05/18 09:20:06;;;;;;;3.95;2.25;;;17.00;88.70;;;;;;5157315;27;20043;-69
2023/05/18 09:22:34;;;;;;;2.83;2.05;;;17.40;88.20;;;;;;5138531;27;20046;-68
2023/05/18 09:25:04;;;;;;;2.38;1.88;;;17.80;87.10;;;;;;5156978;27;20066;-66
2023/05/18 09:27:30;;;;;;;3.47;1.70;;;18.10;87.20;;;;;;5156106;27;20043;-67
2023/05/18 09:29:57;;;;;;;3.17;2.03;;;17.70;86.30;;;;;;5156455;27;20047;-67
2023/05/18 09:32:24;;;;;;;4.60;2.17;;;17.80;87.20;;;;;;5156409;27;20447;-68
2023/05/18 09:34:51;;;;;;;7.32;2.45;;;18.00;84.80;;;;;;5156563;27;20054;-67
2023/05/18 09:37:20;;;;;;;4.30;2.25;;;17.60;85.00;;;;;;5137755;27;20057;-67
2023/05/18 09:40:09;;;;;;;4.18;2.33;;;17.50;85.80;;;;;;5156307;27;20043;-67
2023/05/18 09:42:40;;;;;;;5.07;2.03;;;18.10;85.30;;;;;;5156725;27;20046;-67
2023/05/18 09:45:22;;;;;;;4.30;1.70;;;17.90;84.30;;;;;;5156156;27;20043;-68
2023/05/18 09:47:49;;;;;;;4.27;2.30;;;17.80;83.20;;;;;;5156257;27;20047;-68
2023/05/18 09:50:19;;;;;;;3.97;1.90;;;18.40;85.10;;;;;;5156384;27;20058;-68
2023/05/18 09:52:46;;;;;;;2.88;2.03;;;18.40;84.20;;;;;;5156024;27;20081;-68
2023/05/18 09:55:14;;;;;;;5.63;2.33;;;18.80;83.50;;;;;;5156092;27;20054;-67
2023/05/18 09:57:42;;;;;;;5.53;2.10;;;18.60;81.20;;;;;;5156302;27;20055;-67
2023/05/18 10:00:10;;;;;;;4.40;2.08;;;18.60;82.80;;;;;;5155649;27;20472;-66
2023/05/18 10:02:47;;;;;;;6.05;2.28;;;18.60;81.50;;;;;;5155501;27;20043;-69
2023/05/18 10:05:26;;;;;;;4.15;2.03;;;18.80;81.70;;;;;;5155515;27;20542;-68
2023/05/18 10:07:53;;;;;;;3.72;2.17;;;18.30;81.90;;;;;;5137960;27;20046;-68
2023/05/18 10:10:22;;;;;;;3.92;1.85;;;18.70;83.00;;;;;;5155251;27;20509;-68
2023/05/18 10:12:49;;;;;;;6.93;2.58;;;18.90;82.70;;;;;;5155439;27;20064;-67
2023/05/18 10:15:18;;;;;;;4.57;1.98;;;19.20;82.40;;;;;;5155579;27;20046;-68
2023/05/18 10:17:46;;;;;;;3.42;1.80;;;19.00;82.30;;;;;;5155506;27;20039;-68
2023/05/18 10:20:16;;;;;;;5.25;1.83;;;18.50;82.30;;;;;;5155144;27;20099;-69
2023/05/18 10:22:47;;;;;;;3.65;2.08;;;18.60;80.80;;;;;;5156025;27;20051;-68
2023/05/18 10:25:24;;;;;;;7.10;2.88;;;18.50;82.00;;;;;;5155295;27;20051;-68
2023/05/18 10:27:55;;;;;;;2.65;1.73;;;18.50;82.50;;;;;;5155272;27;20050;-68
2023/05/18 10:30:22;;;;;;;5.13;2.13;;;18.00;83.10;;;;;;5155222;27;20252;-69
2023/05/18 10:32:48;;;;;;;2.65;1.52;;;17.80;85.20;;;;;;5155357;27;20123;-69
2023/05/18 10:35:14;;;;;;;4.47;1.95;;;17.70;84.50;;;;;;5154959;27;20039;-68
2023/05/18 10:37:46;;;;;;;3.15;1.80;;;17.60;83.40;;;;;;5135981;27;20126;-69
2023/05/18 10:40:13;;;;;;;4.18;1.80;;;17.80;82.90;;;;;;5136612;27;20046;-69
2023/05/18 10:42:40;;;;;;;5.97;2.30;;;18.00;82.30;;;;;;5136315;27;20460;-68
2023/05/18 10:45:08;;;;;;;5.05;2.17;;;18.20;81.20;;;;;;5154717;27;20087;-69
2023/05/18 10:47:39;;;;;;;4.15;1.88;;;18.20;80.40;;;;;;5154718;27;20462;-68
2023/05/18 10:50:05;;;;;;;7.20;2.22;;;17.90;81.50;;;;;;5155104;27;20050;-68
2023/05/18 10:52:32;;;;;;;4.90;2.70;;;17.60;82.70;;;;;;5154329;27;20070;-68
2023/05/18 10:55:03;;;;;;;3.40;2.10;;;17.50;81.70;;;;;;5154971;27;20096;-69
2023/05/18 10:57:40;;;;;;;7.80;2.28;;;17.30;82.60;;;;;;5154406;27;20074;-69
2023/05/18 11:00:09;;;;;;;3.97;2.17;;;17.20;82.70;;;;;;5154415;27;20475;-68
2023/05/18 11:02:40;;;;;;;5.65;1.98;;;17.30;82.60;;;;;;5154226;27;20039;-68
2023/05/18 11:05:07;;;;;;;3.38;2.13;;;17.40;82.70;;;;;;5154443;27;20043;-69
2023/05/18 11:07:33;;;;;;;5.45;2.70;;;17.20;83.50;;;;;;5154408;27;20047;-68
2023/05/18 11:10:07;;;;;;;2.58;1.90;;;17.30;84.70;;;;;;5154345;27;20562;-68
2023/05/18 11:12:35;;;;;;;7.70;2.67;;;17.30;84.30;;;;;;5154409;27;20031;-70
2023/05/18 11:15:00;;;;;;;3.50;1.98;;;17.00;83.60;;;;;;5154089;27;20078;-68
2023/05/18 11:17:29;;;;;;;4.30;2.75;;;16.70;84.10;;;;;;5135679;27;20034;-68
2023/05/18 11:20:07;;;;;;;6.60;2.78;;;16.70;82.90;;;;;;5154494;27;20053;-68
2023/05/18 11:23:17;;;;;;;4.68;2.15;;;16.90;85.00;;;;;;5153974;27;20075;-68
2023/05/18 11:25:43;;;;;;;6.60;2.00;;;16.80;84.90;;;;;;5050097;28;20060;-68
2023/05/18 11:28:10;;;;;;;4.75;2.30;;;16.80;85.10;;;;;;5049711;28;20048;-69
2023/05/18 11:30:36;;;;;;;5.80;2.50;;;16.80;86.10;;;;;;5103411;27;20051;-68
2023/05/18 11:33:20;;;;;;;5.45;2.65;;;16.90;86.10;;;;;;5154018;27;20038;-69
2023/05/18 11:36:12;;;;;;;4.75;2.70;;;16.70;84.90;;;;;;5154091;27;20046;-68
2023/05/18 11:39:05;;;;;;;5.53;2.53;;;16.50;84.40;;;;;;5153974;27;20074;-68
2023/05/18 11:41:42;;;;;;;4.65;2.78;;;16.50;84.70;;;;;;5153841;27;20038;-68
2023/05/18 11:44:10;;;;;;;9.95;3.15;;;16.40;85.70;;;;;;5153883;27;20057;-68
2023/05/18 11:47:07;;;;;;;2.70;2.13;;;16.40;84.40;;;;;;5154064;27;20066;-68
2023/05/18 11:49:42;;;;;;;5.70;3.00;;;16.50;84.50;;;;;;5116446;27;20059;-68
2023/05/18 11:52:23;;;;;;;7.10;2.67;;;16.40;84.10;;;;;;5158367;27;20043;-68
2023/05/18 11:54:54;;;;;;;4.32;2.40;;;16.50;85.00;;;;;;5158039;27;20054;-68
2023/05/18 11:57:24;;;;;;;3.63;2.45;;;16.40;85.20;;;;;;5158264;27;20039;-69
2023/05/18 11:59:55;;;;;;;5.28;2.67;;;16.30;85.20;;;;;;5158165;27;20455;-67
2023/05/18 12:02:24;;;;;;;4.45;2.80;;;16.40;84.00;;;;;;5157585;27;20536;-68
2023/05/18 12:04:59;;;;;;;6.13;3.38;;;16.50;84.60;;;;;;5157889;27;20046;-69
2023/05/18 12:07:27;;;;;;;6.15;2.97;;;16.30;85.00;;;;;;5158125;27;20069;-69
2023/05/18 12:10:06;;;;;;;4.60;2.60;;;16.30;85.40;;;;;;5158197;27;20050;-69
2023/05/18 12:12:33;;;;;;;5.38;2.78;;;16.50;85.90;;;;;;5157749;27;20050;-69
2023/05/18 12:15:01;;;;;;;3.50;2.90;;;16.30;86.20;;;;;;5158238;27;20124;-67
2023/05/18 12:17:46;;;;;;;3.30;2.70;;;16.00;86.30;;;;;;5157810;27;20039;-67
2023/05/18 12:20:18;;;;;;;6.40;2.97;;;16.30;86.40;;;;;;5158044;27;20068;-67
2023/05/18 12:22:49;;;;;;;6.37;2.60;;;16.50;86.90;;;;;;5139602;27;20049;-67
2023/05/18 12:25:15;;;;;;;9.00;3.55;;;16.60;87.80;;;;;;5157400;27;20050;-68
2023/05/18 12:27:44;;;;;;;4.35;2.67;;;16.40;88.40;;;;;;5157333;27;20057;-68
2023/05/18 12:30:22;;;;;;;6.82;3.22;;;16.50;88.20;;;;;;5157313;27;20050;-67
2023/05/18 12:32:51;;;;;;;5.30;3.00;;;16.70;88.20;;;;;;5157399;27;20082;-68
2023/05/18 12:35:21;;;;;;;4.85;2.67;;;16.70;87.80;;;;;;5157361;27;20038;-68
2023/05/18 12:37:47;;;;;;;5.65;2.63;;;16.80;87.60;;;;;;5156777;27;20050;-69
2023/05/18 12:40:14;;;;;;;4.88;3.20;;;16.90;86.50;;;;;;5157072;27;20050;-68
2023/05/18 12:42:50;;;;;;;7.20;3.00;;;16.90;87.30;;;;;;5157317;27;20114;-68
2023/05/18 12:45:16;;;;;;;3.47;2.78;;;16.80;87.20;;;;;;5121700;27;20074;-69
2023/05/18 12:47:42;;;;;;;5.18;2.88;;;16.30;86.90;;;;;;5157151;27;20517;-69
2023/05/18 12:50:08;;;;;;;5.47;2.42;;;16.30;87.40;;;;;;5157463;27;20131;-68
2023/05/18 12:52:33;;;;;;;5.22;2.40;;;16.50;88.20;;;;;;5157073;27;20043;-69
2023/05/18 12:54:59;;;;;;;5.55;3.10;;;16.40;87.70;;;;;;5156954;27;20046;-70